createdAt,value
2022-08-26T00:01:05.809Z,16.50
2022-08-26T00:03:41.085Z,16.60
2022-08-26T00:06:14.180Z,16.60
2022-08-26T00:08:48.559Z,16.70
2022-08-26T00:11:26.599Z,16.70
2022-08-26T00:13:55.526Z,16.70
2022-08-26T00:16:30.684Z,16.70
2022-08-26T00:19:04.124Z,16.70
2022-08-26T00:21:37.564Z,16.70
2022-08-26T00:24:15.761Z,16.70
2022-08-26T00:26:48.980Z,16.80
2022-08-26T00:29:22.450Z,16.80
2022-08-26T00:31:55.401Z,16.80
2022-08-26T00:34:28.184Z,16.80
2022-08-26T00:37:01.051Z,16.90
2022-08-26T00:39:34.134Z,16.90
2022-08-26T00:42:06.767Z,16.90
2022-08-26T00:44:39.768Z,16.90
2022-08-26T00:47:16.559Z,16.90
2022-08-26T00:49:51.085Z,16.90
2022-08-26T00:52:25.531Z,16.90
2022-08-26T00:55:11.703Z,16.90
2022-08-26T00:57:50.567Z,16.90
2022-08-26T01:00:25.607Z,16.90
2022-08-26T01:02:59.902Z,16.90
2022-08-26T01:05:33.459Z,16.90
2022-08-26T01:08:10.655Z,16.90
2022-08-26T01:10:43.446Z,16.80
2022-08-26T01:13:18.253Z,16.90
2022-08-26T01:15:54.104Z,16.90
2022-08-26T01:18:27.646Z,16.80
2022-08-26T01:21:21.639Z,16.80
2022-08-26T01:23:57.288Z,16.80
2022-08-26T01:26:32.492Z,16.80
2022-08-26T01:29:07.732Z,16.70
2022-08-26T01:31:58.727Z,16.70
2022-08-26T01:34:33.835Z,16.70
2022-08-26T01:37:17.794Z,16.70
2022-08-26T01:39:58.906Z,16.70
2022-08-26T01:42:32.618Z,16.70
2022-08-26T01:45:16.929Z,16.70
2022-08-26T01:47:57.054Z,16.70
2022-08-26T01:50:30.323Z,16.70
2022-08-26T01:53:04.573Z,16.70
2022-08-26T01:55:39.287Z,16.70
2022-08-26T01:58:14.884Z,16.70
2022-08-26T02:00:51.839Z,16.70
2022-08-26T02:03:25.674Z,16.70
2022-08-26T02:06:13.291Z,16.70
2022-08-26T02:08:57.297Z,16.70
2022-08-26T02:11:30.336Z,16.70
2022-08-26T02:14:07.792Z,16.70
2022-08-26T02:16:50.215Z,16.70
2022-08-26T02:19:27.918Z,16.70
2022-08-26T02:22:06.635Z,16.70
2022-08-26T02:24:56.757Z,16.80
2022-08-26T02:27:36.616Z,16.80
2022-08-26T02:30:17.469Z,16.80
2022-08-26T02:32:51.231Z,16.80
2022-08-26T02:35:34.317Z,16.70
2022-08-26T02:38:09.907Z,16.80
2022-08-26T02:40:45.688Z,16.80
2022-08-26T02:43:19.736Z,16.80
2022-08-26T02:45:54.740Z,16.80
2022-08-26T02:48:27.600Z,16.80
2022-08-26T02:51:01.552Z,16.90
2022-08-26T02:53:35.531Z,16.90
2022-08-26T02:56:09.805Z,16.90
2022-08-26T02:58:42.779Z,16.90
2022-08-26T03:01:26.079Z,16.90
2022-08-26T03:03:59.835Z,16.90
2022-08-26T03:06:33.088Z,16.90
2022-08-26T03:09:06.157Z,16.90
2022-08-26T03:11:39.604Z,16.90
2022-08-26T03:14:12.421Z,16.90
2022-08-26T03:16:48.432Z,16.80
2022-08-26T03:19:20.215Z,16.80
2022-08-26T03:21:53.157Z,16.80
2022-08-26T03:24:27.351Z,16.80
2022-08-26T03:27:00.380Z,16.80
2022-08-26T03:29:52.105Z,16.80
2022-08-26T03:32:27.121Z,16.80
2022-08-26T03:35:00.530Z,16.80
2022-08-26T03:37:33.469Z,16.80
2022-08-26T03:40:10.921Z,16.90
2022-08-26T03:42:45.337Z,16.90
2022-08-26T03:45:19.830Z,17.00
2022-08-26T03:47:53.299Z,17.00
2022-08-26T03:50:27.365Z,17.00
2022-08-26T03:53:00.748Z,17.00
2022-08-26T03:55:38.919Z,17.00
2022-08-26T03:58:11.951Z,17.00
2022-08-26T04:00:45.303Z,17.00
2022-08-26T04:03:20.683Z,17.00
2022-08-26T04:05:55.239Z,17.00
2022-08-26T04:08:28.260Z,17.00
2022-08-26T04:11:02.252Z,17.00
2022-08-26T04:13:35.550Z,17.00
2022-08-26T04:16:08.608Z,17.00
2022-08-26T04:18:46.445Z,17.00
2022-08-26T04:21:17.376Z,17.10
2022-08-26T04:23:50.345Z,17.10
2022-08-26T04:26:24.436Z,17.10
2022-08-26T04:28:58.309Z,17.00
2022-08-26T04:31:32.438Z,17.00
2022-08-26T04:34:06.755Z,17.00
2022-08-26T04:36:39.732Z,17.00
2022-08-26T04:39:14.442Z,16.90
2022-08-26T04:41:47.955Z,16.90
2022-08-26T04:44:21.632Z,16.80
2022-08-26T04:46:55.105Z,16.80
2022-08-26T04:49:29.052Z,16.70
2022-08-26T04:52:03.259Z,16.70
2022-08-26T04:54:37.445Z,16.70
2022-08-26T04:57:10.468Z,16.70
2022-08-26T04:59:43.494Z,16.60
2022-08-26T05:02:16.429Z,16.60
2022-08-26T05:04:49.385Z,16.50
2022-08-26T05:07:27.825Z,16.50
2022-08-26T05:10:00.921Z,16.50
2022-08-26T05:12:34.377Z,16.50
2022-08-26T05:15:11.628Z,16.50
2022-08-26T05:17:44.841Z,16.40
2022-08-26T05:20:18.714Z,16.40
2022-08-26T05:22:52.307Z,16.40
2022-08-26T05:25:27.463Z,16.40
2022-08-26T05:28:00.778Z,16.30
2022-08-26T05:30:34.592Z,16.30
2022-08-26T05:33:08.497Z,16.30
2022-08-26T05:35:42.087Z,16.30
2022-08-26T05:38:17.478Z,16.30
2022-08-26T05:40:53.209Z,16.20
2022-08-26T05:43:26.123Z,16.20
2022-08-26T05:45:59.402Z,16.20
2022-08-26T05:48:32.240Z,16.20
2022-08-26T05:51:08.067Z,16.20
2022-08-26T05:53:43.957Z,16.10
2022-08-26T05:56:17.687Z,16.10
2022-08-26T05:58:50.798Z,16.10
2022-08-26T06:01:29.016Z,16.10
2022-08-26T06:04:03.823Z,16.10
2022-08-26T06:06:38.885Z,16.10
2022-08-26T06:09:13.196Z,16.00
2022-08-26T06:11:45.856Z,16.00
2022-08-26T06:14:21.726Z,16.00
2022-08-26T06:16:58.904Z,16.00
2022-08-26T06:19:33.063Z,16.00
2022-08-26T06:22:07.035Z,16.00
2022-08-26T06:24:58.672Z,15.90
2022-08-26T06:27:34.226Z,15.90
2022-08-26T06:30:06.951Z,15.90
2022-08-26T06:32:39.823Z,15.90
2022-08-26T06:35:13.059Z,15.80
2022-08-26T06:37:47.054Z,15.80
2022-08-26T06:40:19.806Z,15.80
2022-08-26T06:42:52.585Z,15.80
2022-08-26T06:45:25.938Z,15.80
2022-08-26T06:47:58.948Z,15.80
2022-08-26T06:50:32.059Z,15.70
2022-08-26T06:53:05.425Z,15.70
2022-08-26T06:55:39.561Z,15.70
2022-08-26T06:58:12.672Z,15.70
2022-08-26T07:00:47.263Z,15.70
2022-08-26T07:03:19.841Z,15.60
2022-08-26T07:05:53.486Z,15.60
2022-08-26T07:08:26.384Z,15.60
2022-08-26T07:10:59.544Z,15.60
2022-08-26T07:13:32.420Z,15.60
2022-08-26T07:16:06.129Z,15.60
2022-08-26T07:18:44.913Z,15.60
2022-08-26T07:21:19.714Z,15.60
2022-08-26T07:23:58.700Z,15.50
2022-08-26T07:26:30.133Z,15.50
2022-08-26T07:29:03.708Z,15.50
2022-08-26T07:31:42.854Z,15.50
2022-08-26T07:34:15.769Z,15.50
2022-08-26T07:36:52.518Z,15.50
2022-08-26T07:39:25.719Z,15.50
2022-08-26T07:41:58.669Z,15.50
2022-08-26T07:44:36.609Z,15.50
2022-08-26T07:47:24.596Z,15.40
2022-08-26T07:49:48.525Z,15.40
2022-08-26T07:52:26.207Z,15.40
2022-08-26T07:54:57.016Z,15.40
2022-08-26T07:57:30.036Z,15.40
2022-08-26T08:00:03.707Z,15.40
2022-08-26T08:02:36.702Z,15.40
2022-08-26T08:05:10.002Z,15.40
2022-08-26T08:07:44.941Z,15.40
2022-08-26T08:10:25.153Z,15.30
2022-08-26T08:13:01.917Z,15.30
2022-08-26T08:15:39.841Z,15.30
2022-08-26T08:18:15.490Z,15.30
2022-08-26T08:20:54.445Z,15.30
2022-08-26T08:23:22.252Z,15.30
2022-08-26T08:25:57.309Z,15.30
2022-08-26T08:28:30.188Z,15.30
2022-08-26T08:31:04.003Z,15.30
2022-08-26T08:33:37.593Z,15.30
2022-08-26T08:36:11.931Z,15.30
2022-08-26T08:38:50.698Z,15.30
2022-08-26T08:41:42.320Z,15.20
2022-08-26T08:47:00.520Z,15.20
2022-08-26T08:49:35.603Z,15.20
2022-08-26T08:52:18.307Z,15.20
2022-08-26T08:54:55.280Z,15.10
2022-08-26T08:57:33.457Z,15.10
2022-08-26T09:00:09.665Z,15.10
2022-08-26T09:02:49.921Z,15.10
2022-08-26T09:05:31.809Z,15.10
2022-08-26T09:08:11.720Z,15.10
2022-08-26T09:10:49.494Z,15.10
2022-08-26T09:13:25.222Z,15.10
2022-08-26T09:16:15.707Z,15.10
2022-08-26T09:19:08.368Z,15.00
2022-08-26T09:21:41.410Z,15.00
2022-08-26T09:24:14.878Z,15.00
2022-08-26T09:26:50.400Z,15.00
2022-08-26T09:29:28.295Z,15.00
2022-08-26T09:32:20.335Z,15.00
2022-08-26T09:35:09.353Z,14.90
2022-08-26T09:40:34.665Z,14.90
2022-08-26T09:43:22.003Z,14.90
2022-08-26T09:45:59.730Z,14.90
2022-08-26T09:48:37.715Z,14.90
2022-08-26T09:51:32.391Z,14.80
2022-08-26T09:54:08.095Z,14.80
2022-08-26T09:56:42.281Z,14.80
2022-08-26T09:59:16.639Z,14.80
2022-08-26T10:01:51.199Z,14.80
2022-08-26T10:04:32.254Z,14.80
2022-08-26T10:07:13.327Z,14.80
2022-08-26T10:09:47.467Z,14.70
2022-08-26T10:12:23.331Z,14.70
2022-08-26T10:14:57.992Z,14.70
2022-08-26T10:17:33.643Z,14.70
2022-08-26T10:20:23.654Z,14.70
2022-08-26T10:22:59.956Z,14.70
2022-08-26T10:25:37.397Z,14.60
2022-08-26T10:28:29.111Z,14.60
2022-08-26T10:31:03.960Z,14.60
2022-08-26T10:33:36.978Z,14.60
2022-08-26T10:36:15.385Z,14.60
2022-08-26T10:38:46.801Z,14.50
2022-08-26T10:41:21.981Z,14.50
2022-08-26T10:43:56.778Z,14.50
2022-08-26T10:46:31.535Z,14.50
2022-08-26T10:49:07.043Z,14.40
2022-08-26T10:51:48.986Z,14.40
2022-08-26T10:54:30.572Z,14.40
2022-08-26T10:57:19.401Z,14.40
2022-08-26T10:59:57.142Z,14.40
2022-08-26T11:02:47.167Z,14.40
2022-08-26T11:05:27.813Z,14.40
2022-08-26T11:08:26.973Z,14.40
2022-08-26T11:11:04.937Z,14.30
2022-08-26T11:14:01.849Z,14.30
2022-08-26T11:16:36.476Z,14.30
2022-08-26T11:19:11.623Z,14.30
2022-08-26T11:22:03.026Z,14.30
2022-08-26T11:24:47.461Z,14.30
2022-08-26T11:27:31.821Z,14.30
2022-08-26T11:30:19.129Z,14.30
2022-08-26T11:33:00.782Z,14.30
2022-08-26T11:35:44.634Z,14.20
2022-08-26T11:38:41.783Z,14.20
2022-08-26T11:41:16.588Z,14.20
2022-08-26T11:43:50.833Z,14.20
2022-08-26T11:46:28.579Z,14.20
2022-08-26T11:49:09.265Z,14.20
2022-08-26T11:51:45.245Z,14.20
2022-08-26T11:54:35.280Z,14.20
2022-08-26T11:57:03.762Z,14.20
2022-08-26T11:59:38.103Z,14.20
2022-08-26T12:02:16.792Z,14.20
2022-08-26T12:04:52.326Z,14.20
2022-08-26T12:07:26.798Z,14.20
2022-08-26T12:10:02.878Z,14.20
2022-08-26T12:12:44.395Z,14.20
2022-08-26T12:15:25.347Z,14.30
2022-08-26T12:17:58.498Z,14.30
2022-08-26T12:20:50.375Z,14.30
2022-08-26T12:23:30.952Z,14.30
2022-08-26T12:26:31.623Z,14.30
2022-08-26T12:29:12.880Z,14.30
2022-08-26T12:31:43.027Z,14.30
2022-08-26T12:34:22.002Z,14.30
2022-08-26T12:39:35.303Z,14.30
2022-08-26T12:42:10.176Z,14.30
2022-08-26T12:44:53.955Z,14.30
2022-08-26T12:47:42.678Z,14.30
2022-08-26T12:50:21.372Z,14.30
2022-08-26T12:53:15.185Z,14.30
2022-08-26T12:55:58.770Z,14.30
2022-08-26T12:58:39.641Z,14.30
2022-08-26T13:01:14.950Z,14.30
2022-08-26T13:03:49.448Z,14.30
2022-08-26T13:06:40.954Z,14.30
2022-08-26T13:09:16.087Z,14.30
2022-08-26T13:11:51.118Z,14.30
2022-08-26T13:14:24.865Z,14.30
2022-08-26T13:16:57.969Z,14.30
2022-08-26T13:19:31.515Z,14.40
2022-08-26T13:22:06.552Z,14.40
2022-08-26T13:24:44.568Z,14.40
2022-08-26T13:27:19.284Z,14.40
2022-08-26T13:29:52.498Z,14.50
2022-08-26T13:32:27.649Z,14.40
2022-08-26T13:35:05.665Z,14.40
2022-08-26T13:37:38.424Z,14.50
2022-08-26T13:40:13.549Z,14.50
2022-08-26T13:42:49.461Z,14.50
2022-08-26T13:45:20.628Z,14.50
2022-08-26T13:47:53.393Z,14.50
2022-08-26T13:50:26.254Z,14.50
2022-08-26T13:52:58.903Z,14.50
2022-08-26T13:55:32.379Z,14.50
2022-08-26T13:58:05.737Z,14.50
2022-08-26T14:00:39.770Z,14.50
2022-08-26T14:03:13.596Z,14.50
2022-08-26T14:05:46.482Z,14.50
2022-08-26T14:08:23.858Z,14.50
2022-08-26T14:10:56.770Z,14.50
2022-08-26T14:13:29.963Z,14.50
2022-08-26T14:16:03.672Z,14.50
2022-08-26T14:18:42.119Z,14.50
2022-08-26T14:21:16.857Z,14.40
2022-08-26T14:23:49.769Z,14.40
2022-08-26T14:26:28.966Z,14.40
2022-08-26T14:28:57.186Z,14.40
2022-08-26T14:31:30.875Z,14.40
2022-08-26T14:34:09.524Z,14.40
2022-08-26T14:36:44.703Z,14.40
2022-08-26T14:39:18.101Z,14.40
2022-08-26T14:41:53.780Z,14.40
2022-08-26T14:44:32.329Z,14.40
2022-08-26T14:47:08.277Z,14.40
2022-08-26T14:49:41.243Z,14.40
2022-08-26T14:52:14.121Z,14.40
2022-08-26T14:54:47.271Z,14.40
2022-08-26T14:57:21.427Z,14.40
2022-08-26T14:59:54.887Z,14.30
2022-08-26T15:02:33.629Z,14.40
2022-08-26T15:05:01.908Z,14.30
2022-08-26T15:07:34.877Z,14.40
2022-08-26T15:10:08.920Z,14.40
2022-08-26T15:12:42.269Z,14.40
2022-08-26T15:15:16.946Z,14.40
2022-08-26T15:17:50.002Z,14.40
2022-08-26T15:20:22.959Z,14.40
2022-08-26T15:22:56.475Z,14.40
2022-08-26T15:25:30.222Z,14.40
2022-08-26T15:28:03.229Z,14.40
2022-08-26T15:30:36.050Z,14.40
2022-08-26T15:33:15.370Z,14.40
2022-08-26T15:35:43.264Z,14.40
2022-08-26T15:38:16.116Z,14.40
2022-08-26T15:40:53.599Z,14.40
2022-08-26T15:43:32.598Z,14.40
2022-08-26T15:46:05.566Z,14.40
2022-08-26T15:48:38.777Z,14.40
2022-08-26T15:51:18.146Z,14.40
2022-08-26T15:53:51.182Z,14.40
2022-08-26T15:56:24.167Z,14.40
2022-08-26T15:58:57.756Z,14.40
2022-08-26T16:01:32.596Z,14.40
2022-08-26T16:04:05.953Z,14.40
2022-08-26T16:06:40.556Z,14.40
2022-08-26T16:09:13.713Z,14.40
2022-08-26T16:11:47.090Z,14.40
2022-08-26T16:14:19.877Z,14.40
2022-08-26T16:16:53.109Z,14.40
2022-08-26T16:19:26.323Z,14.30
2022-08-26T16:21:59.371Z,14.30
2022-08-26T16:24:32.605Z,14.30
2022-08-26T16:27:05.548Z,14.30
2022-08-26T16:29:38.703Z,14.30
2022-08-26T16:32:11.706Z,14.30
2022-08-26T16:34:56.706Z,14.30
2022-08-26T16:37:19.703Z,14.40
2022-08-26T16:39:52.486Z,14.40
2022-08-26T16:42:30.157Z,14.40
2022-08-26T16:45:03.333Z,14.30
2022-08-26T16:47:40.077Z,14.30
2022-08-26T16:50:14.788Z,14.30
2022-08-26T16:52:47.775Z,14.30
2022-08-26T16:55:22.081Z,14.30
2022-08-26T16:57:56.907Z,14.30
2022-08-26T17:00:31.906Z,14.30
2022-08-26T17:03:05.946Z,14.30
2022-08-26T17:05:38.925Z,14.30
2022-08-26T17:08:12.012Z,14.30
2022-08-26T17:10:45.177Z,14.30
2022-08-26T17:13:25.953Z,14.30
2022-08-26T17:15:53.887Z,14.30
2022-08-26T17:18:29.773Z,14.30
2022-08-26T17:21:07.153Z,14.30
2022-08-26T17:23:44.983Z,14.30
2022-08-26T17:26:17.752Z,14.30
2022-08-26T17:28:50.659Z,14.30
2022-08-26T17:31:24.021Z,14.30
2022-08-26T17:33:57.354Z,14.30
2022-08-26T17:36:30.014Z,14.30
2022-08-26T17:39:03.431Z,14.30
2022-08-26T17:41:36.280Z,14.30
2022-08-26T17:44:09.814Z,14.30
2022-08-26T17:46:43.254Z,14.30
2022-08-26T17:49:16.152Z,14.30
2022-08-26T17:51:49.699Z,14.30
2022-08-26T17:54:22.429Z,14.30
2022-08-26T17:56:55.317Z,14.30
2022-08-26T17:59:30.582Z,14.30
2022-08-26T18:02:03.588Z,14.30
2022-08-26T18:04:36.561Z,14.30
2022-08-26T18:07:09.439Z,14.30
2022-08-26T18:09:42.383Z,14.30
2022-08-26T18:12:18.100Z,14.30
2022-08-26T18:14:51.219Z,14.30
2022-08-26T18:17:24.051Z,14.30
2022-08-26T18:19:56.925Z,14.30
2022-08-26T18:22:29.845Z,14.30
2022-08-26T18:25:02.706Z,14.30
2022-08-26T18:27:36.880Z,14.30
2022-08-26T18:30:16.264Z,14.30
2022-08-26T18:32:46.209Z,14.30
2022-08-26T18:35:19.247Z,14.30
2022-08-26T18:37:52.266Z,14.30
2022-08-26T18:40:25.272Z,14.40
2022-08-26T18:42:58.092Z,14.30
2022-08-26T18:45:30.976Z,14.30
2022-08-26T18:48:05.914Z,14.30
2022-08-26T18:50:47.179Z,14.40
2022-08-26T18:53:17.866Z,14.40
2022-08-26T18:55:50.610Z,14.40
2022-08-26T18:58:23.422Z,14.40
2022-08-26T19:00:57.193Z,14.40
2022-08-26T19:03:30.644Z,14.40
2022-08-26T19:06:03.454Z,14.40
2022-08-26T19:08:38.923Z,14.40
2022-08-26T19:11:13.846Z,14.40
2022-08-26T19:13:47.143Z,14.40
2022-08-26T19:16:21.352Z,14.40
2022-08-26T19:18:54.511Z,14.40
2022-08-26T19:21:27.778Z,14.40
2022-08-26T19:24:05.048Z,14.40
2022-08-26T19:26:38.517Z,14.40
2022-08-26T19:31:48.729Z,14.40
2022-08-26T19:34:22.239Z,14.40
2022-08-26T19:36:55.957Z,14.40
2022-08-26T19:39:29.079Z,14.40
2022-08-26T19:42:06.590Z,14.40
2022-08-26T19:44:57.052Z,14.40
2022-08-26T19:47:29.977Z,14.40
2022-08-26T19:50:03.057Z,14.40
2022-08-26T19:52:36.706Z,14.40
2022-08-26T19:55:10.920Z,14.40
2022-08-26T19:57:43.759Z,14.50
2022-08-26T20:00:18.802Z,14.50
2022-08-26T20:02:52.091Z,14.50
2022-08-26T20:05:26.138Z,14.50
2022-08-26T20:07:58.981Z,14.50
2022-08-26T20:10:31.973Z,14.50
2022-08-26T20:13:05.651Z,14.50
2022-08-26T20:15:39.640Z,14.50
2022-08-26T20:18:13.905Z,14.50
2022-08-26T20:21:04.404Z,14.50
2022-08-26T20:23:38.367Z,14.50
2022-08-26T20:26:11.337Z,14.40
2022-08-26T20:28:44.253Z,14.50
2022-08-26T20:31:21.487Z,14.50
2022-08-26T20:33:54.584Z,14.50
2022-08-26T20:36:30.295Z,14.50
2022-08-26T20:39:07.605Z,14.50
2022-08-26T20:41:40.577Z,14.50
2022-08-26T20:44:13.854Z,14.60
2022-08-26T20:46:51.564Z,14.60
2022-08-26T20:49:24.739Z,14.60
2022-08-26T20:51:57.475Z,14.70
2022-08-26T20:54:34.125Z,14.70
2022-08-26T20:57:07.554Z,14.70
2022-08-26T20:59:40.707Z,14.70
2022-08-26T21:02:14.113Z,14.80
2022-08-26T21:04:47.523Z,14.80
2022-08-26T21:07:21.875Z,14.80
2022-08-26T21:09:55.136Z,14.90
2022-08-26T21:12:28.274Z,14.90
2022-08-26T21:15:01.048Z,14.90
2022-08-26T21:17:34.039Z,15.00
2022-08-26T21:20:07.245Z,15.00
2022-08-26T21:22:40.110Z,15.10
2022-08-26T21:25:13.529Z,15.10
2022-08-26T21:27:46.483Z,15.20
2022-08-26T21:30:20.204Z,15.20
2022-08-26T21:32:53.055Z,15.20
2022-08-26T21:35:32.199Z,15.30
2022-08-26T21:38:05.060Z,15.30
2022-08-26T21:40:40.625Z,15.30
2022-08-26T21:43:22.684Z,15.30
2022-08-26T21:45:48.673Z,15.40
2022-08-26T21:48:21.518Z,15.40
2022-08-26T21:50:55.432Z,15.40
2022-08-26T21:53:28.368Z,15.40
2022-08-26T21:56:02.864Z,15.40
2022-08-26T21:58:36.171Z,15.50
2022-08-26T22:01:10.205Z,15.50
2022-08-26T22:03:47.282Z,15.60
2022-08-26T22:06:19.535Z,15.60
2022-08-26T22:08:52.575Z,15.60
2022-08-26T22:11:25.780Z,15.60
2022-08-26T22:13:59.650Z,15.60
2022-08-26T22:16:32.618Z,15.70
2022-08-26T22:19:05.827Z,15.70
2022-08-26T22:21:38.825Z,15.80
2022-08-26T22:24:13.118Z,15.80
2022-08-26T22:26:45.967Z,15.80
2022-08-26T22:29:18.713Z,15.80
2022-08-26T22:31:51.594Z,15.80
2022-08-26T22:34:25.137Z,15.80
2022-08-26T22:36:58.068Z,15.90
2022-08-26T22:39:31.454Z,15.90
2022-08-26T22:42:05.800Z,15.90
2022-08-26T22:44:39.423Z,15.90
2022-08-26T22:47:12.366Z,15.90
2022-08-26T22:49:45.183Z,15.90
2022-08-26T22:52:17.981Z,15.90
2022-08-26T22:54:51.052Z,15.90
2022-08-26T22:57:24.537Z,16.00
2022-08-26T22:59:57.346Z,16.00
2022-08-26T23:02:29.971Z,16.00
2022-08-26T23:05:03.023Z,16.00
2022-08-26T23:07:36.733Z,15.90
2022-08-26T23:10:11.203Z,15.90
2022-08-26T23:12:43.978Z,15.90
2022-08-26T23:15:16.841Z,15.90
2022-08-26T23:17:58.598Z,15.90
2022-08-26T23:20:25.224Z,16.00
2022-08-26T23:23:00.915Z,16.00
2022-08-26T23:25:33.731Z,16.00
2022-08-26T23:28:07.269Z,16.00
2022-08-26T23:30:40.013Z,16.00
2022-08-26T23:33:12.819Z,16.00
2022-08-26T23:35:45.701Z,16.00
2022-08-26T23:38:19.967Z,16.00
2022-08-26T23:40:52.899Z,16.00
2022-08-26T23:43:25.851Z,16.00
2022-08-26T23:45:58.757Z,16.00
2022-08-26T23:48:31.591Z,16.00
2022-08-26T23:51:21.856Z,16.00
2022-08-26T23:53:54.828Z,16.00
2022-08-26T23:56:27.760Z,16.10
2022-08-26T23:59:00.527Z,16.10
